createdAt,value
2023-01-26T00:01:45.020Z,58.00
2023-01-26T00:04:13.071Z,57.90
2023-01-26T00:06:41.096Z,58.00
2023-01-26T00:09:14.551Z,56.50
2023-01-26T00:11:42.619Z,59.80
2023-01-26T00:14:10.536Z,62.20
2023-01-26T00:16:39.500Z,58.10
2023-01-26T00:19:07.661Z,58.60
2023-01-26T00:21:35.570Z,61.80
2023-01-26T00:24:04.837Z,61.70
2023-01-26T00:26:32.855Z,59.90
2023-01-26T00:29:01.613Z,61.70
2023-01-26T00:31:29.639Z,57.10
2023-01-26T00:33:57.762Z,58.10
2023-01-26T00:36:25.981Z,62.10
2023-01-26T00:38:54.183Z,60.00
2023-01-26T00:41:40.753Z,53.70
2023-01-26T00:44:10.259Z,52.90
2023-01-26T00:46:38.425Z,55.40
2023-01-26T00:49:08.154Z,53.60
2023-01-26T00:51:36.104Z,55.40
2023-01-26T00:54:05.468Z,56.10
2023-01-26T00:56:33.396Z,53.90
2023-01-26T00:59:01.359Z,51.90
2023-01-26T01:01:29.242Z,52.00
2023-01-26T01:03:57.208Z,53.30
2023-01-26T01:06:25.164Z,50.90
2023-01-26T01:08:52.950Z,51.50
2023-01-26T01:11:20.974Z,53.40
2023-01-26T01:13:48.814Z,53.30
2023-01-26T01:16:17.480Z,52.30
2023-01-26T01:18:46.409Z,53.00
2023-01-26T01:21:17.195Z,51.00
2023-01-26T01:23:45.139Z,54.80
2023-01-26T01:26:14.099Z,49.00
2023-01-26T01:28:43.571Z,49.10
2023-01-26T01:31:15.194Z,49.80
2023-01-26T01:33:43.668Z,45.70
2023-01-26T01:36:14.711Z,44.90
2023-01-26T01:38:44.947Z,49.70
2023-01-26T01:41:15.304Z,43.70
2023-01-26T01:43:43.873Z,45.10
2023-01-26T01:46:17.896Z,45.50
2023-01-26T01:48:56.573Z,44.20
2023-01-26T01:51:53.923Z,46.00
2023-01-26T01:54:32.497Z,44.50
2023-01-26T01:57:05.226Z,43.50
2023-01-26T01:59:33.805Z,44.30
2023-01-26T02:02:01.793Z,45.70
2023-01-26T02:04:29.795Z,43.00
2023-01-26T02:07:00.797Z,48.10
2023-01-26T02:09:54.542Z,44.90
2023-01-26T02:12:27.747Z,46.00
2023-01-26T02:14:57.871Z,47.70
2023-01-26T02:17:27.352Z,46.10
2023-01-26T02:20:16.332Z,46.30
2023-01-26T02:22:58.126Z,48.10
2023-01-26T02:25:47.533Z,48.10
2023-01-26T02:28:16.911Z,44.60
2023-01-26T02:30:46.570Z,46.90
2023-01-26T02:33:24.446Z,44.90
2023-01-26T02:35:53.515Z,43.20
2023-01-26T02:38:24.537Z,42.70
2023-01-26T02:41:02.620Z,42.30
2023-01-26T02:43:30.745Z,43.30
2023-01-26T02:45:59.720Z,40.80
2023-01-26T02:48:48.074Z,43.30
2023-01-26T02:51:16.861Z,41.70
2023-01-26T02:53:45.021Z,40.60
2023-01-26T02:56:13.092Z,42.40
2023-01-26T02:58:41.295Z,43.30
2023-01-26T03:01:09.179Z,43.10
2023-01-26T03:03:47.746Z,41.60
2023-01-26T03:06:15.984Z,43.90
2023-01-26T03:08:43.854Z,46.20
2023-01-26T03:11:11.973Z,44.20
2023-01-26T03:13:40.981Z,44.30
2023-01-26T03:16:10.436Z,43.20
2023-01-26T03:18:57.434Z,44.20
2023-01-26T03:21:45.102Z,41.80
2023-01-26T03:24:34.268Z,43.30
2023-01-26T03:27:23.653Z,40.40
2023-01-26T03:29:51.887Z,41.20
2023-01-26T03:32:19.786Z,42.20
2023-01-26T03:34:48.366Z,43.30
2023-01-26T03:37:16.394Z,39.80
2023-01-26T03:40:12.312Z,40.70
2023-01-26T03:42:59.390Z,37.70
2023-01-26T03:45:47.242Z,37.00
2023-01-26T03:48:33.893Z,40.80
2023-01-26T03:51:21.448Z,40.10
2023-01-26T03:54:07.781Z,38.30
2023-01-26T03:56:35.914Z,41.00
2023-01-26T03:59:12.501Z,37.20
2023-01-26T04:02:02.950Z,40.50
2023-01-26T04:04:50.236Z,41.00
2023-01-26T04:07:41.557Z,39.80
2023-01-26T04:10:10.525Z,42.90
2023-01-26T04:12:38.687Z,39.40
2023-01-26T04:15:35.167Z,41.70
2023-01-26T04:18:26.959Z,38.10
2023-01-26T04:21:14.479Z,41.50
2023-01-26T04:23:44.592Z,38.30
2023-01-26T04:26:12.697Z,39.50
2023-01-26T04:28:40.855Z,40.00
2023-01-26T04:31:09.270Z,40.40
2023-01-26T04:33:38.618Z,40.10
2023-01-26T04:36:08.371Z,36.80
2023-01-26T04:38:38.860Z,41.20
2023-01-26T04:41:06.852Z,40.30
2023-01-26T04:43:41.038Z,36.20
2023-01-26T04:46:09.306Z,37.10
2023-01-26T04:48:39.694Z,40.30
2023-01-26T04:51:17.235Z,37.90
2023-01-26T04:53:45.188Z,40.40
2023-01-26T04:56:34.601Z,41.80
2023-01-26T04:59:06.735Z,39.90
2023-01-26T05:01:36.701Z,40.20
2023-01-26T05:04:08.696Z,42.60
2023-01-26T05:06:40.689Z,40.80
2023-01-26T05:09:09.577Z,40.80
2023-01-26T05:11:39.014Z,40.60
2023-01-26T05:17:09.812Z,38.20
2023-01-26T05:19:49.935Z,39.60
2023-01-26T05:22:20.664Z,40.00
2023-01-26T05:25:08.037Z,40.10
2023-01-26T05:27:47.846Z,41.40
2023-01-26T05:30:16.807Z,40.10
2023-01-26T05:32:45.177Z,43.80
2023-01-26T05:35:13.737Z,37.50
2023-01-26T05:37:42.639Z,44.10
2023-01-26T05:40:12.817Z,41.20
2023-01-26T05:42:42.862Z,43.60
2023-01-26T05:45:21.879Z,42.80
2023-01-26T05:47:52.007Z,40.70
2023-01-26T05:50:20.083Z,41.50
2023-01-26T05:53:08.064Z,43.00
2023-01-26T05:55:37.428Z,42.20
2023-01-26T05:58:05.464Z,36.80
2023-01-26T06:00:34.523Z,40.50
2023-01-26T06:03:07.398Z,40.60
2023-01-26T06:05:36.259Z,39.30
2023-01-26T06:08:10.153Z,40.10
2023-01-26T06:10:51.431Z,37.40
2023-01-26T06:13:26.042Z,41.60
2023-01-26T06:16:02.922Z,35.70
2023-01-26T06:18:31.948Z,37.90
2023-01-26T06:21:01.479Z,39.40
2023-01-26T06:23:30.207Z,39.90
2023-01-26T06:26:02.580Z,34.30
2023-01-26T06:28:31.640Z,37.20
2023-01-26T06:31:04.766Z,34.50
2023-01-26T06:33:35.504Z,37.30
2023-01-26T06:36:11.443Z,36.50
2023-01-26T06:38:45.447Z,37.70
2023-01-26T06:41:13.989Z,35.10
2023-01-26T06:43:46.661Z,35.40
2023-01-26T06:46:16.163Z,34.50
2023-01-26T06:48:45.867Z,32.10
2023-01-26T06:51:16.815Z,28.60
2023-01-26T06:53:56.653Z,26.30
2023-01-26T06:56:39.257Z,26.50
2023-01-26T06:59:22.804Z,24.30
2023-01-26T07:02:20.873Z,27.70
2023-01-26T07:04:50.207Z,27.20
2023-01-26T07:07:18.136Z,26.90
2023-01-26T07:09:46.066Z,23.10
2023-01-26T07:12:14.925Z,24.10
2023-01-26T07:14:42.766Z,27.80
2023-01-26T07:17:10.606Z,20.90
2023-01-26T07:19:38.641Z,21.10
2023-01-26T07:22:06.457Z,21.60
2023-01-26T07:24:34.295Z,20.20
2023-01-26T07:27:02.116Z,20.20
2023-01-26T07:29:30.058Z,20.40
2023-01-26T07:31:58.044Z,19.00
2023-01-26T07:34:26.008Z,17.70
2023-01-26T07:36:53.827Z,20.00
2023-01-26T07:39:21.640Z,17.50
2023-01-26T07:41:50.207Z,17.10
2023-01-26T07:44:47.290Z,18.70
2023-01-26T07:47:15.737Z,19.10
2023-01-26T07:49:43.546Z,17.50
2023-01-26T07:52:11.622Z,16.90
2023-01-26T07:54:40.047Z,16.20
2023-01-26T07:57:09.184Z,16.40
2023-01-26T07:59:37.110Z,15.60
2023-01-26T08:02:04.928Z,17.50
2023-01-26T08:04:32.849Z,17.50
2023-01-26T08:07:01.296Z,16.00
2023-01-26T08:09:29.323Z,15.20
2023-01-26T08:11:58.950Z,14.60
2023-01-26T08:14:35.436Z,14.70
2023-01-26T08:17:09.863Z,15.40
2023-01-26T08:19:38.525Z,15.70
2023-01-26T08:22:06.418Z,16.00
2023-01-26T08:24:34.345Z,15.30
2023-01-26T08:27:02.167Z,16.20
2023-01-26T08:29:30.199Z,14.60
2023-01-26T08:31:58.080Z,14.70
2023-01-26T08:34:26.801Z,15.90
2023-01-26T08:36:54.604Z,13.70
2023-01-26T08:39:22.386Z,14.00
2023-01-26T08:41:50.170Z,12.50
2023-01-26T08:44:18.062Z,11.70
2023-01-26T08:46:46.300Z,12.70
2023-01-26T08:49:14.434Z,12.90
2023-01-26T08:51:42.468Z,14.60
2023-01-26T08:54:10.294Z,13.20
2023-01-26T08:56:38.113Z,13.00
2023-01-26T08:59:06.012Z,13.30
2023-01-26T09:01:33.752Z,13.20
2023-01-26T09:04:03.144Z,10.90
2023-01-26T09:06:33.279Z,11.30
2023-01-26T09:09:01.232Z,13.80
2023-01-26T09:11:29.056Z,12.90
2023-01-26T09:13:56.892Z,10.60
2023-01-26T09:16:25.715Z,11.30
2023-01-26T09:18:54.387Z,12.60
2023-01-26T09:21:24.138Z,12.30
2023-01-26T09:23:52.165Z,12.80
2023-01-26T09:26:20.140Z,14.20
2023-01-26T09:28:53.238Z,12.50
2023-01-26T09:31:21.339Z,12.20
2023-01-26T09:33:50.964Z,12.00
2023-01-26T09:36:19.258Z,13.10
2023-01-26T09:38:47.193Z,13.80
2023-01-26T09:41:20.736Z,12.70
2023-01-26T09:43:54.930Z,12.40
2023-01-26T09:46:27.928Z,13.80
2023-01-26T09:49:21.822Z,12.50
2023-01-26T09:52:00.894Z,13.30
2023-01-26T09:54:49.520Z,13.80
2023-01-26T09:57:23.382Z,11.00
2023-01-26T10:00:08.275Z,11.70
2023-01-26T10:02:49.521Z,11.70
2023-01-26T10:05:32.185Z,12.40
2023-01-26T10:08:11.765Z,11.60
2023-01-26T10:10:45.845Z,11.80
2023-01-26T10:13:15.894Z,11.20
2023-01-26T10:15:48.687Z,11.60
2023-01-26T10:18:21.332Z,10.80
2023-01-26T10:20:52.229Z,10.80
2023-01-26T10:23:32.254Z,11.40
2023-01-26T10:26:17.660Z,11.40
2023-01-26T10:28:48.157Z,13.00
2023-01-26T10:31:32.694Z,12.80
2023-01-26T10:34:17.908Z,13.30
2023-01-26T10:36:47.472Z,12.90
2023-01-26T10:39:18.111Z,15.60
2023-01-26T10:42:03.594Z,14.20
2023-01-26T10:44:37.983Z,14.70
2023-01-26T10:47:17.510Z,12.50
2023-01-26T10:49:45.980Z,15.10
2023-01-26T10:52:18.719Z,15.20
2023-01-26T10:54:46.728Z,14.50
2023-01-26T10:57:17.020Z,13.40
2023-01-26T11:00:00.138Z,14.90
2023-01-26T11:02:30.888Z,14.80
2023-01-26T11:05:05.161Z,14.90
2023-01-26T11:07:40.724Z,17.30
2023-01-26T11:10:33.644Z,13.80
2023-01-26T11:13:17.759Z,13.80
2023-01-26T11:16:00.292Z,14.00
2023-01-26T11:18:42.886Z,13.30
2023-01-26T11:21:20.823Z,14.90
2023-01-26T11:23:57.845Z,13.70
2023-01-26T11:26:54.866Z,14.50
2023-01-26T11:29:51.094Z,15.20
2023-01-26T11:32:46.625Z,17.30
2023-01-26T11:35:29.697Z,14.50
2023-01-26T11:38:20.128Z,15.10
2023-01-26T11:41:06.120Z,16.60
2023-01-26T11:43:47.720Z,14.80
2023-01-26T11:46:21.524Z,16.00
2023-01-26T11:48:52.297Z,15.00
2023-01-26T11:51:45.315Z,19.50
2023-01-26T11:54:36.333Z,17.70
2023-01-26T11:57:27.888Z,17.00
2023-01-26T12:00:02.142Z,18.80
2023-01-26T12:02:43.684Z,19.50
2023-01-26T12:05:22.321Z,18.80
2023-01-26T12:08:05.220Z,21.70
2023-01-26T12:10:42.128Z,20.90
2023-01-26T12:13:23.257Z,16.30
2023-01-26T12:15:56.929Z,17.80
2023-01-26T12:18:50.669Z,17.20
2023-01-26T12:21:22.742Z,16.30
2023-01-26T12:24:02.357Z,17.10
2023-01-26T12:26:42.578Z,15.90
2023-01-26T12:29:26.447Z,17.20
2023-01-26T12:32:10.801Z,18.20
2023-01-26T12:34:39.152Z,17.10
2023-01-26T12:37:25.863Z,16.00
2023-01-26T12:40:20.390Z,20.40
2023-01-26T12:42:51.437Z,18.70
2023-01-26T12:45:32.655Z,16.90
2023-01-26T12:48:13.988Z,16.70
2023-01-26T12:51:08.967Z,17.30
2023-01-26T12:53:43.556Z,16.00
2023-01-26T12:56:25.965Z,19.10
2023-01-26T12:58:55.515Z,18.70
2023-01-26T13:01:29.084Z,17.10
2023-01-26T13:04:00.146Z,16.20
2023-01-26T13:06:29.607Z,14.80
2023-01-26T13:08:57.336Z,15.30
2023-01-26T13:11:50.014Z,13.70
2023-01-26T13:14:42.500Z,16.80
2023-01-26T13:17:16.486Z,17.10
2023-01-26T13:19:44.407Z,17.30
2023-01-26T13:22:18.451Z,15.60
2023-01-26T13:24:56.182Z,16.70
2023-01-26T13:27:39.623Z,16.40
2023-01-26T13:30:26.179Z,15.10
2023-01-26T13:35:27.005Z,13.90
2023-01-26T13:38:15.707Z,15.10
2023-01-26T13:40:50.491Z,15.30
2023-01-26T13:43:40.426Z,15.10
2023-01-26T13:46:14.272Z,14.70
2023-01-26T13:48:52.645Z,17.10
2023-01-26T13:51:27.398Z,14.90
2023-01-26T13:54:04.532Z,16.00
2023-01-26T13:56:35.323Z,14.90
2023-01-26T13:59:09.607Z,15.30
2023-01-26T14:01:49.207Z,18.30
2023-01-26T14:04:35.462Z,16.70
2023-01-26T14:07:15.734Z,16.40
2023-01-26T14:09:48.754Z,15.70
2023-01-26T14:12:23.946Z,14.70
2023-01-26T14:14:56.695Z,16.60
2023-01-26T14:17:26.625Z,16.60
2023-01-26T14:19:54.980Z,15.90
2023-01-26T14:22:23.148Z,17.50
2023-01-26T14:24:52.997Z,16.60
2023-01-26T14:27:42.529Z,18.00
2023-01-26T14:30:30.849Z,19.80
2023-01-26T14:33:24.915Z,21.40
2023-01-26T14:35:59.069Z,18.50
2023-01-26T14:38:29.381Z,18.50
2023-01-26T14:41:00.659Z,20.40
2023-01-26T14:43:28.554Z,22.30
2023-01-26T14:46:13.147Z,20.30
2023-01-26T14:48:47.013Z,16.80
2023-01-26T14:51:24.465Z,19.40
2023-01-26T14:54:01.306Z,16.30
2023-01-26T14:56:40.681Z,15.50
2023-01-26T14:59:14.976Z,15.30
2023-01-26T15:01:42.915Z,16.90
2023-01-26T15:04:26.142Z,18.40
2023-01-26T15:06:53.974Z,16.90
2023-01-26T15:09:26.651Z,16.70
2023-01-26T15:12:16.340Z,17.00
2023-01-26T15:14:49.241Z,13.90
2023-01-26T15:17:40.952Z,17.30
2023-01-26T15:20:14.937Z,17.40
2023-01-26T15:22:50.077Z,16.30
2023-01-26T15:25:23.425Z,15.70
2023-01-26T15:27:57.455Z,19.80
2023-01-26T15:30:28.046Z,21.10
2023-01-26T15:32:56.419Z,19.30
2023-01-26T15:35:29.763Z,22.70
2023-01-26T15:38:13.040Z,25.30
2023-01-26T15:40:40.923Z,23.20
2023-01-26T15:43:13.655Z,19.50
2023-01-26T15:45:50.862Z,21.40
2023-01-26T15:48:19.713Z,22.70
2023-01-26T15:50:48.548Z,22.60
2023-01-26T15:53:22.047Z,23.50
2023-01-26T15:55:56.114Z,23.30
2023-01-26T15:58:25.915Z,23.60
2023-01-26T16:00:53.935Z,20.20
2023-01-26T16:03:22.670Z,19.80
2023-01-26T16:05:50.895Z,20.80
2023-01-26T16:08:19.445Z,20.00
2023-01-26T16:10:47.891Z,18.20
2023-01-26T16:13:18.315Z,16.90
2023-01-26T16:15:49.553Z,21.40
2023-01-26T16:18:17.810Z,17.20
2023-01-26T16:20:47.883Z,17.80
2023-01-26T16:23:24.827Z,18.70
2023-01-26T16:25:53.137Z,20.90
2023-01-26T16:28:22.881Z,20.50
2023-01-26T16:30:51.338Z,16.60
2023-01-26T16:33:24.632Z,23.10
2023-01-26T16:35:53.353Z,21.80
2023-01-26T16:38:21.183Z,19.90
2023-01-26T16:40:49.742Z,17.40
2023-01-26T16:43:24.227Z,21.70
2023-01-26T16:45:52.969Z,18.90
2023-01-26T16:48:22.753Z,20.90
2023-01-26T16:50:53.967Z,18.60
2023-01-26T16:53:29.373Z,20.30
2023-01-26T16:55:57.222Z,21.00
2023-01-26T16:58:26.729Z,22.00
2023-01-26T17:00:55.563Z,19.90
2023-01-26T17:03:24.322Z,23.00
2023-01-26T17:05:52.529Z,22.80
2023-01-26T17:08:20.368Z,22.30
2023-01-26T17:11:01.066Z,22.20
2023-01-26T17:13:31.652Z,21.90
2023-01-26T17:15:59.633Z,27.60
2023-01-26T17:18:27.821Z,26.70
2023-01-26T17:21:02.803Z,24.30
2023-01-26T17:23:31.538Z,25.80
2023-01-26T17:26:00.571Z,26.70
2023-01-26T17:28:28.710Z,24.50
2023-01-26T17:30:58.357Z,36.00
2023-01-26T17:33:28.758Z,28.20
2023-01-26T17:36:05.180Z,30.60
2023-01-26T17:38:33.560Z,29.40
2023-01-26T17:41:01.438Z,29.70
2023-01-26T17:43:29.758Z,36.50
2023-01-26T17:46:08.516Z,32.10
2023-01-26T17:48:40.258Z,30.70
2023-01-26T17:51:10.258Z,29.90
2023-01-26T17:53:40.101Z,31.10
2023-01-26T17:56:10.360Z,31.50
2023-01-26T17:58:39.012Z,32.70
2023-01-26T18:01:09.818Z,32.00
2023-01-26T18:03:41.810Z,32.40
2023-01-26T18:06:10.737Z,33.50
2023-01-26T18:08:39.729Z,34.50
2023-01-26T18:11:11.502Z,33.20
2023-01-26T18:13:40.771Z,33.60
2023-01-26T18:16:14.130Z,43.60
2023-01-26T18:18:46.044Z,38.50
2023-01-26T18:21:22.801Z,34.00
2023-01-26T18:23:54.167Z,38.00
2023-01-26T18:26:25.575Z,34.50
2023-01-26T18:28:54.821Z,37.90
2023-01-26T18:31:24.652Z,36.80
2023-01-26T18:33:54.933Z,35.20
2023-01-26T18:36:23.726Z,36.70
2023-01-26T18:38:54.908Z,36.80
2023-01-26T18:41:25.129Z,37.80
2023-01-26T18:44:00.147Z,36.60
2023-01-26T18:46:31.785Z,36.40
2023-01-26T18:49:01.111Z,37.80
2023-01-26T18:51:32.432Z,35.70
2023-01-26T18:54:04.176Z,37.40
2023-01-26T18:56:34.427Z,36.10
2023-01-26T18:59:03.114Z,34.20
2023-01-26T19:01:32.293Z,31.40
2023-01-26T19:04:05.969Z,35.00
2023-01-26T19:06:36.538Z,36.40
2023-01-26T19:09:07.799Z,29.60
2023-01-26T19:11:38.295Z,29.80
2023-01-26T19:14:08.208Z,29.90
2023-01-26T19:16:36.929Z,30.00
2023-01-26T19:19:05.334Z,37.30
2023-01-26T19:21:34.156Z,32.70
2023-01-26T19:24:05.804Z,32.80
2023-01-26T19:26:34.488Z,32.90
2023-01-26T19:29:04.110Z,30.80
2023-01-26T19:31:33.068Z,31.60
2023-01-26T19:34:03.858Z,31.70
2023-01-26T19:36:34.172Z,34.00
2023-01-26T19:39:03.754Z,33.00
2023-01-26T19:41:32.040Z,33.40
2023-01-26T19:44:00.972Z,30.30
2023-01-26T19:46:28.936Z,28.60
2023-01-26T19:48:56.774Z,26.60
2023-01-26T19:51:27.276Z,29.60
2023-01-26T19:53:59.077Z,22.00
2023-01-26T19:56:30.634Z,25.50
2023-01-26T19:59:01.461Z,23.60
2023-01-26T20:01:31.191Z,24.10
2023-01-26T20:04:02.483Z,26.90
2023-01-26T20:06:32.942Z,25.60
2023-01-26T20:09:01.200Z,30.20
2023-01-26T20:11:29.851Z,28.70
2023-01-26T20:14:00.088Z,30.80
2023-01-26T20:16:29.386Z,27.70
2023-01-26T20:18:59.253Z,29.10
2023-01-26T20:21:28.734Z,27.60
2023-01-26T20:24:06.290Z,29.40
2023-01-26T20:26:35.636Z,27.20
2023-01-26T20:29:04.484Z,29.30
2023-01-26T20:31:33.223Z,28.30
2023-01-26T20:34:02.316Z,29.20
2023-01-26T20:36:31.595Z,29.60
2023-01-26T20:38:59.552Z,26.50
2023-01-26T20:41:29.881Z,27.50
2023-01-26T20:44:01.831Z,27.40
2023-01-26T20:46:36.580Z,25.40
2023-01-26T20:49:05.998Z,27.00
2023-01-26T20:51:36.019Z,22.70
2023-01-26T20:54:08.826Z,23.10
2023-01-26T20:56:38.314Z,25.30
2023-01-26T20:59:08.117Z,24.40
2023-01-26T21:01:36.630Z,24.40
2023-01-26T21:04:05.909Z,30.70
2023-01-26T21:06:34.306Z,30.50
2023-01-26T21:09:03.052Z,34.50
2023-01-26T21:11:31.535Z,42.40
2023-01-26T21:14:01.801Z,42.40
2023-01-26T21:16:31.906Z,43.90
2023-01-26T21:19:00.136Z,44.70
2023-01-26T21:21:28.311Z,45.30
2023-01-26T21:23:56.572Z,44.70
2023-01-26T21:26:26.049Z,46.00
2023-01-26T21:28:56.391Z,45.10
2023-01-26T21:31:26.232Z,47.70
2023-01-26T21:33:54.959Z,48.70
2023-01-26T21:36:26.331Z,50.50
2023-01-26T21:38:56.195Z,46.00
2023-01-26T21:41:46.712Z,50.20
2023-01-26T21:44:17.760Z,44.10
2023-01-26T21:46:47.034Z,44.20
2023-01-26T21:49:16.113Z,45.00
2023-01-26T21:52:02.837Z,44.20
2023-01-26T21:54:31.933Z,40.10
2023-01-26T21:57:00.853Z,42.50
2023-01-26T21:59:29.416Z,43.90
2023-01-26T22:01:58.398Z,44.00
2023-01-26T22:04:30.635Z,44.10
2023-01-26T22:06:58.548Z,43.70
2023-01-26T22:09:26.574Z,49.30
2023-01-26T22:11:54.392Z,46.70
2023-01-26T22:14:27.258Z,47.80
2023-01-26T22:16:55.207Z,50.40
2023-01-26T22:19:23.070Z,50.00
2023-01-26T22:21:51.484Z,49.90
2023-01-26T22:24:19.821Z,51.30
2023-01-26T22:26:48.318Z,54.20
2023-01-26T22:29:16.629Z,50.70
2023-01-26T22:31:44.734Z,50.10
2023-01-26T22:34:12.540Z,47.10
2023-01-26T22:36:41.231Z,53.60
2023-01-26T22:39:09.389Z,51.90
2023-01-26T22:41:37.961Z,48.70
2023-01-26T22:44:06.411Z,50.60
2023-01-26T22:46:35.333Z,49.80
2023-01-26T22:49:05.058Z,53.20
2023-01-26T22:51:37.525Z,53.20
2023-01-26T22:54:05.843Z,53.70
2023-01-26T22:56:34.171Z,52.20
2023-01-26T22:59:02.480Z,50.60
2023-01-26T23:01:32.926Z,53.40
2023-01-26T23:04:01.930Z,50.40
2023-01-26T23:06:29.904Z,48.80
2023-01-26T23:09:02.334Z,47.40
2023-01-26T23:11:31.089Z,45.00
2023-01-26T23:14:00.660Z,48.80
2023-01-26T23:16:29.382Z,44.90
2023-01-26T23:18:59.524Z,41.20
2023-01-26T23:21:28.710Z,42.00
2023-01-26T23:23:57.316Z,42.00
2023-01-26T23:26:25.592Z,43.10
2023-01-26T23:28:53.638Z,41.00
2023-01-26T23:31:22.241Z,37.00
2023-01-26T23:33:50.222Z,39.70
2023-01-26T23:36:18.059Z,39.10
2023-01-26T23:38:45.911Z,38.90
2023-01-26T23:41:14.006Z,43.50
2023-01-26T23:43:41.864Z,45.00
2023-01-26T23:46:11.107Z,48.30
2023-01-26T23:48:39.808Z,43.20
2023-01-26T23:51:10.803Z,38.90
2023-01-26T23:53:39.295Z,41.30
2023-01-26T23:56:10.375Z,39.80
2023-01-26T23:58:38.250Z,43.10
